sensor_id;sensor_type;location;lat;lon;timestamp;temperature;humidity
33139;DHT22;19501;50.948;5.316;2023-07-24T00:00:47;18.70;99.90
33139;DHT22;19501;50.948;5.316;2023-07-24T00:03:13;18.60;99.90
33139;DHT22;19501;50.948;5.316;2023-07-24T00:05:39;18.60;99.90
33139;DHT22;19501;50.948;5.316;2023-07-24T00:08:04;18.60;99.90
33139;DHT22;19501;50.948;5.316;2023-07-24T00:10:31;18.60;99.90
33139;DHT22;19501;50.948;5.316;2023-07-24T00:12:56;18.50;99.90
33139;DHT22;19501;50.948;5.316;2023-07-24T00:15:22;18.40;99.90
33139;DHT22;19501;50.948;5.316;2023-07-24T00:17:48;18.40;99.90
33139;DHT22;19501;50.948;5.316;2023-07-24T00:20:13;18.50;99.90
33139;DHT22;19501;50.948;5.316;2023-07-24T00:22:39;18.50;99.90
33139;DHT22;19501;50.948;5.316;2023-07-24T00:25:06;18.40;99.90
33139;DHT22;19501;50.948;5.316;2023-07-24T00:27:31;18.40;99.90
33139;DHT22;19501;50.948;5.316;2023-07-24T00:29:57;18.30;99.90
33139;DHT22;19501;50.948;5.316;2023-07-24T00:32:23;18.30;99.90
33139;DHT22;19501;50.948;5.316;2023-07-24T00:34:48;18.30;99.90
33139;DHT22;19501;50.948;5.316;2023-07-24T00:37:16;18.30;99.90
33139;DHT22;19501;50.948;5.316;2023-07-24T00:39:42;18.30;99.90
33139;DHT22;19501;50.948;5.316;2023-07-24T00:42:08;18.20;99.90
33139;DHT22;19501;50.948;5.316;2023-07-24T00:44:33;18.20;99.90
33139;DHT22;19501;50.948;5.316;2023-07-24T00:46:59;18.30;99.90
33139;DHT22;19501;50.948;5.316;2023-07-24T00:49:25;18.30;99.90
33139;DHT22;19501;50.948;5.316;2023-07-24T00:51:50;18.30;99.90
33139;DHT22;19501;50.948;5.316;2023-07-24T00:54:17;18.20;99.90
33139;DHT22;19501;50.948;5.316;2023-07-24T00:56:45;18.30;99.90
33139;DHT22;19501;50.948;5.316;2023-07-24T00:59:10;18.30;99.90
33139;DHT22;19501;50.948;5.316;2023-07-24T01:04:07;18.30;99.90
33139;DHT22;19501;50.948;5.316;2023-07-24T01:06:32;18.30;99.90
33139;DHT22;19501;50.948;5.316;2023-07-24T01:08:58;18.20;99.90
33139;DHT22;19501;50.948;5.316;2023-07-24T01:11:35;18.20;99.90
33139;DHT22;19501;50.948;5.316;2023-07-24T01:16:47;18.30;99.90
33139;DHT22;19501;50.948;5.316;2023-07-24T01:19:42;18.20;99.90
33139;DHT22;19501;50.948;5.316;2023-07-24T01:22:27;18.20;99.90
33139;DHT22;19501;50.948;5.316;2023-07-24T01:27:25;18.30;99.90
33139;DHT22;19501;50.948;5.316;2023-07-24T01:29:50;18.20;99.90
33139;DHT22;19501;50.948;5.316;2023-07-24T01:32:16;18.10;99.90
33139;DHT22;19501;50.948;5.316;2023-07-24T01:34:42;18.10;99.90
33139;DHT22;19501;50.948;5.316;2023-07-24T01:37:09;18.10;99.90
33139;DHT22;19501;50.948;5.316;2023-07-24T01:39:37;18.10;99.90
33139;DHT22;19501;50.948;5.316;2023-07-24T01:42:04;18.00;99.90
33139;DHT22;19501;50.948;5.316;2023-07-24T01:44:30;18.10;99.90
33139;DHT22;19501;50.948;5.316;2023-07-24T01:46:56;18.10;99.90
33139;DHT22;19501;50.948;5.316;2023-07-24T01:49:21;18.10;99.90
33139;DHT22;19501;50.948;5.316;2023-07-24T01:51:47;18.20;99.90
33139;DHT22;19501;50.948;5.316;2023-07-24T01:54:13;18.30;99.90
33139;DHT22;19501;50.948;5.316;2023-07-24T01:56:39;18.20;99.90
33139;DHT22;19501;50.948;5.316;2023-07-24T01:59:05;18.20;99.90
33139;DHT22;19501;50.948;5.316;2023-07-24T02:01:34;18.20;99.90
33139;DHT22;19501;50.948;5.316;2023-07-24T02:03:59;18.20;99.90
33139;DHT22;19501;50.948;5.316;2023-07-24T02:06:26;18.20;99.90
33139;DHT22;19501;50.948;5.316;2023-07-24T02:08:53;18.20;99.90
33139;DHT22;19501;50.948;5.316;2023-07-24T02:11:19;18.20;99.90
33139;DHT22;19501;50.948;5.316;2023-07-24T02:13:45;18.20;99.90
33139;DHT22;19501;50.948;5.316;2023-07-24T02:16:12;18.10;99.90
33139;DHT22;19501;50.948;5.316;2023-07-24T02:18:40;18.10;99.90
33139;DHT22;19501;50.948;5.316;2023-07-24T02:21:06;18.00;99.90
33139;DHT22;19501;50.948;5.316;2023-07-24T02:23:31;18.00;99.90
33139;DHT22;19501;50.948;5.316;2023-07-24T02:25:57;17.90;99.90
33139;DHT22;19501;50.948;5.316;2023-07-24T02:28:22;17.90;99.90
33139;DHT22;19501;50.948;5.316;2023-07-24T02:30:48;17.90;99.90
33139;DHT22;19501;50.948;5.316;2023-07-24T02:33:14;17.90;99.90
33139;DHT22;19501;50.948;5.316;2023-07-24T02:35:41;17.90;99.90
33139;DHT22;19501;50.948;5.316;2023-07-24T02:38:07;17.90;99.90
33139;DHT22;19501;50.948;5.316;2023-07-24T02:40:34;17.80;99.90
33139;DHT22;19501;50.948;5.316;2023-07-24T02:43:00;17.90;99.90
33139;DHT22;19501;50.948;5.316;2023-07-24T02:45:26;17.90;99.90
33139;DHT22;19501;50.948;5.316;2023-07-24T02:47:52;17.90;99.90
33139;DHT22;19501;50.948;5.316;2023-07-24T02:50:17;17.90;99.90
33139;DHT22;19501;50.948;5.316;2023-07-24T02:52:43;17.80;99.90
33139;DHT22;19501;50.948;5.316;2023-07-24T02:55:08;17.80;99.90
33139;DHT22;19501;50.948;5.316;2023-07-24T02:57:34;17.80;99.90
33139;DHT22;19501;50.948;5.316;2023-07-24T03:00:00;17.80;99.90
33139;DHT22;19501;50.948;5.316;2023-07-24T03:02:25;17.90;99.90
33139;DHT22;19501;50.948;5.316;2023-07-24T03:04:51;17.80;99.90
33139;DHT22;19501;50.948;5.316;2023-07-24T03:07:17;17.80;99.90
33139;DHT22;19501;50.948;5.316;2023-07-24T03:09:42;17.90;99.90
33139;DHT22;19501;50.948;5.316;2023-07-24T03:12:08;17.80;99.90
33139;DHT22;19501;50.948;5.316;2023-07-24T03:14:34;17.80;99.90
33139;DHT22;19501;50.948;5.316;2023-07-24T03:16:59;17.70;99.90
33139;DHT22;19501;50.948;5.316;2023-07-24T03:19:25;17.80;99.90
33139;DHT22;19501;50.948;5.316;2023-07-24T03:21:51;17.70;99.90
33139;DHT22;19501;50.948;5.316;2023-07-24T03:24:17;17.70;99.90
33139;DHT22;19501;50.948;5.316;2023-07-24T03:26:42;17.70;99.90
33139;DHT22;19501;50.948;5.316;2023-07-24T03:29:09;17.70;99.90
33139;DHT22;19501;50.948;5.316;2023-07-24T03:31:34;17.70;99.90
33139;DHT22;19501;50.948;5.316;2023-07-24T03:34:00;17.60;99.90
33139;DHT22;19501;50.948;5.316;2023-07-24T03:36:25;17.70;99.90
33139;DHT22;19501;50.948;5.316;2023-07-24T03:38:51;17.70;99.90
33139;DHT22;19501;50.948;5.316;2023-07-24T03:41:17;17.70;99.90
33139;DHT22;19501;50.948;5.316;2023-07-24T03:43:42;17.60;99.90
33139;DHT22;19501;50.948;5.316;2023-07-24T03:46:08;17.70;99.90
33139;DHT22;19501;50.948;5.316;2023-07-24T03:48:34;17.70;99.90
33139;DHT22;19501;50.948;5.316;2023-07-24T03:51:00;17.70;99.90
33139;DHT22;19501;50.948;5.316;2023-07-24T03:53:27;17.70;99.90
33139;DHT22;19501;50.948;5.316;2023-07-24T03:55:52;17.60;99.90
33139;DHT22;19501;50.948;5.316;2023-07-24T03:58:18;17.70;99.90
33139;DHT22;19501;50.948;5.316;2023-07-24T04:00:44;17.60;99.90
33139;DHT22;19501;50.948;5.316;2023-07-24T04:03:10;17.70;99.90
33139;DHT22;19501;50.948;5.316;2023-07-24T04:05:36;17.60;99.90
33139;DHT22;19501;50.948;5.316;2023-07-24T04:08:02;17.60;99.90
33139;DHT22;19501;50.948;5.316;2023-07-24T04:10:28;17.60;99.90
33139;DHT22;19501;50.948;5.316;2023-07-24T04:12:55;17.60;99.90
33139;DHT22;19501;50.948;5.316;2023-07-24T04:15:22;17.60;99.90
33139;DHT22;19501;50.948;5.316;2023-07-24T04:17:48;17.60;99.90
33139;DHT22;19501;50.948;5.316;2023-07-24T04:20:13;17.60;99.90
33139;DHT22;19501;50.948;5.316;2023-07-24T04:22:39;17.60;99.90
33139;DHT22;19501;50.948;5.316;2023-07-24T04:25:05;17.60;99.90
33139;DHT22;19501;50.948;5.316;2023-07-24T04:27:31;17.60;99.90
33139;DHT22;19501;50.948;5.316;2023-07-24T04:29:56;17.60;99.90
33139;DHT22;19501;50.948;5.316;2023-07-24T04:32:22;17.50;99.90
33139;DHT22;19501;50.948;5.316;2023-07-24T04:34:48;17.50;99.90
33139;DHT22;19501;50.948;5.316;2023-07-24T04:37:13;17.50;99.90
33139;DHT22;19501;50.948;5.316;2023-07-24T04:39:39;17.60;99.90
33139;DHT22;19501;50.948;5.316;2023-07-24T04:42:05;17.60;99.90
33139;DHT22;19501;50.948;5.316;2023-07-24T04:44:31;17.60;99.90
33139;DHT22;19501;50.948;5.316;2023-07-24T04:46:58;17.60;99.90
33139;DHT22;19501;50.948;5.316;2023-07-24T04:49:24;17.70;99.90
33139;DHT22;19501;50.948;5.316;2023-07-24T04:51:50;17.80;99.90
33139;DHT22;19501;50.948;5.316;2023-07-24T04:54:16;17.80;99.90
33139;DHT22;19501;50.948;5.316;2023-07-24T04:56:42;17.80;99.90
33139;DHT22;19501;50.948;5.316;2023-07-24T04:59:08;18.00;99.90
33139;DHT22;19501;50.948;5.316;2023-07-24T05:01:34;17.90;99.90
33139;DHT22;19501;50.948;5.316;2023-07-24T05:04:02;18.00;99.90
33139;DHT22;19501;50.948;5.316;2023-07-24T05:06:27;17.90;99.90
33139;DHT22;19501;50.948;5.316;2023-07-24T05:08:53;17.90;99.90
33139;DHT22;19501;50.948;5.316;2023-07-24T05:11:21;17.90;99.90
33139;DHT22;19501;50.948;5.316;2023-07-24T05:13:47;18.00;99.90
33139;DHT22;19501;50.948;5.316;2023-07-24T05:16:12;17.90;99.90
33139;DHT22;19501;50.948;5.316;2023-07-24T05:18:38;18.00;99.90
33139;DHT22;19501;50.948;5.316;2023-07-24T05:21:03;18.10;99.90
33139;DHT22;19501;50.948;5.316;2023-07-24T05:23:29;18.00;99.90
33139;DHT22;19501;50.948;5.316;2023-07-24T05:26:02;18.00;99.90
33139;DHT22;19501;50.948;5.316;2023-07-24T05:28:29;18.00;99.90
33139;DHT22;19501;50.948;5.316;2023-07-24T05:30:55;18.00;99.90
33139;DHT22;19501;50.948;5.316;2023-07-24T05:33:21;18.00;99.90
33139;DHT22;19501;50.948;5.316;2023-07-24T05:35:49;18.10;99.90
33139;DHT22;19501;50.948;5.316;2023-07-24T05:38:15;18.10;99.90
33139;DHT22;19501;50.948;5.316;2023-07-24T05:40:41;18.00;99.90
33139;DHT22;19501;50.948;5.316;2023-07-24T05:43:09;18.00;99.90
33139;DHT22;19501;50.948;5.316;2023-07-24T05:45:35;17.80;99.90
33139;DHT22;19501;50.948;5.316;2023-07-24T05:48:00;17.80;99.90
33139;DHT22;19501;50.948;5.316;2023-07-24T05:50:26;18.00;99.90
33139;DHT22;19501;50.948;5.316;2023-07-24T05:52:51;18.00;99.90
33139;DHT22;19501;50.948;5.316;2023-07-24T05:55:17;18.20;99.90
33139;DHT22;19501;50.948;5.316;2023-07-24T05:57:44;18.20;99.90
33139;DHT22;19501;50.948;5.316;2023-07-24T06:00:10;18.20;99.90
33139;DHT22;19501;50.948;5.316;2023-07-24T06:02:36;18.20;99.90
33139;DHT22;19501;50.948;5.316;2023-07-24T06:05:01;18.20;99.90
33139;DHT22;19501;50.948;5.316;2023-07-24T06:07:27;18.10;99.90
33139;DHT22;19501;50.948;5.316;2023-07-24T06:09:53;18.10;99.90
33139;DHT22;19501;50.948;5.316;2023-07-24T06:12:18;18.20;99.90
33139;DHT22;19501;50.948;5.316;2023-07-24T06:14:44;18.20;99.90
33139;DHT22;19501;50.948;5.316;2023-07-24T06:17:10;18.30;99.90
33139;DHT22;19501;50.948;5.316;2023-07-24T06:19:36;18.30;99.90
33139;DHT22;19501;50.948;5.316;2023-07-24T06:22:01;18.20;99.90
33139;DHT22;19501;50.948;5.316;2023-07-24T06:24:27;18.20;99.90
33139;DHT22;19501;50.948;5.316;2023-07-24T06:26:55;18.20;99.90
33139;DHT22;19501;50.948;5.316;2023-07-24T06:29:20;18.30;99.90
33139;DHT22;19501;50.948;5.316;2023-07-24T06:31:47;18.20;99.90
33139;DHT22;19501;50.948;5.316;2023-07-24T06:34:15;18.10;99.90
33139;DHT22;19501;50.948;5.316;2023-07-24T06:36:40;18.10;99.90
33139;DHT22;19501;50.948;5.316;2023-07-24T06:39:06;18.20;99.90
33139;DHT22;19501;50.948;5.316;2023-07-24T06:41:32;18.20;99.90
33139;DHT22;19501;50.948;5.316;2023-07-24T06:43:57;18.10;99.90
33139;DHT22;19501;50.948;5.316;2023-07-24T06:46:23;18.10;99.90
33139;DHT22;19501;50.948;5.316;2023-07-24T06:48:48;18.10;99.90
33139;DHT22;19501;50.948;5.316;2023-07-24T06:51:14;17.80;99.90
33139;DHT22;19501;50.948;5.316;2023-07-24T06:53:40;17.60;99.90
33139;DHT22;19501;50.948;5.316;2023-07-24T06:56:05;17.50;99.90
33139;DHT22;19501;50.948;5.316;2023-07-24T06:58:31;17.50;99.90
33139;DHT22;19501;50.948;5.316;2023-07-24T07:00:57;17.50;99.90
33139;DHT22;19501;50.948;5.316;2023-07-24T07:03:22;17.50;99.90
33139;DHT22;19501;50.948;5.316;2023-07-24T07:05:48;17.50;99.90
33139;DHT22;19501;50.948;5.316;2023-07-24T07:08:16;17.50;99.90
33139;DHT22;19501;50.948;5.316;2023-07-24T07:10:41;17.60;99.90
33139;DHT22;19501;50.948;5.316;2023-07-24T07:13:09;17.60;99.90
33139;DHT22;19501;50.948;5.316;2023-07-24T07:15:35;17.50;99.90
33139;DHT22;19501;50.948;5.316;2023-07-24T07:18:01;17.50;99.90
33139;DHT22;19501;50.948;5.316;2023-07-24T07:20:30;17.50;99.90
33139;DHT22;19501;50.948;5.316;2023-07-24T07:22:55;17.50;99.90
33139;DHT22;19501;50.948;5.316;2023-07-24T07:25:21;17.70;99.90
33139;DHT22;19501;50.948;5.316;2023-07-24T07:27:46;17.80;99.90
33139;DHT22;19501;50.948;5.316;2023-07-24T07:30:12;18.10;99.90
33139;DHT22;19501;50.948;5.316;2023-07-24T07:32:38;18.30;99.90
33139;DHT22;19501;50.948;5.316;2023-07-24T07:35:04;18.20;99.90
33139;DHT22;19501;50.948;5.316;2023-07-24T07:37:32;18.20;99.90
33139;DHT22;19501;50.948;5.316;2023-07-24T07:39:57;18.30;99.90
33139;DHT22;19501;50.948;5.316;2023-07-24T07:42:23;18.40;99.90
33139;DHT22;19501;50.948;5.316;2023-07-24T07:44:49;18.60;99.90
33139;DHT22;19501;50.948;5.316;2023-07-24T07:47:14;18.70;99.90
33139;DHT22;19501;50.948;5.316;2023-07-24T07:49:40;18.50;99.90
33139;DHT22;19501;50.948;5.316;2023-07-24T07:52:07;18.50;99.90
33139;DHT22;19501;50.948;5.316;2023-07-24T07:54:33;18.80;99.90
33139;DHT22;19501;50.948;5.316;2023-07-24T07:56:58;18.60;99.90
33139;DHT22;19501;50.948;5.316;2023-07-24T07:59:24;18.60;99.90
33139;DHT22;19501;50.948;5.316;2023-07-24T08:01:49;18.80;99.90
33139;DHT22;19501;50.948;5.316;2023-07-24T08:04:15;18.90;99.90
33139;DHT22;19501;50.948;5.316;2023-07-24T08:06:43;19.00;99.90
33139;DHT22;19501;50.948;5.316;2023-07-24T08:09:08;18.80;99.90
33139;DHT22;19501;50.948;5.316;2023-07-24T08:11:34;18.90;99.90
33139;DHT22;19501;50.948;5.316;2023-07-24T08:14:00;18.80;99.90
33139;DHT22;19501;50.948;5.316;2023-07-24T08:16:25;19.00;99.90
33139;DHT22;19501;50.948;5.316;2023-07-24T08:18:51;19.20;99.90
33139;DHT22;19501;50.948;5.316;2023-07-24T08:21:16;19.50;99.90
33139;DHT22;19501;50.948;5.316;2023-07-24T08:23:42;19.80;99.90
33139;DHT22;19501;50.948;5.316;2023-07-24T08:26:08;19.70;99.90
33139;DHT22;19501;50.948;5.316;2023-07-24T08:28:34;19.70;99.90
33139;DHT22;19501;50.948;5.316;2023-07-24T08:31:05;19.60;99.90
33139;DHT22;19501;50.948;5.316;2023-07-24T08:33:30;19.60;99.90
33139;DHT22;19501;50.948;5.316;2023-07-24T08:36:00;19.60;99.90
33139;DHT22;19501;50.948;5.316;2023-07-24T08:38:26;19.60;99.90
33139;DHT22;19501;50.948;5.316;2023-07-24T08:43:30;19.70;99.90
33139;DHT22;19501;50.948;5.316;2023-07-24T08:45:57;19.90;99.90
33139;DHT22;19501;50.948;5.316;2023-07-24T08:48:24;19.70;99.90
33139;DHT22;19501;50.948;5.316;2023-07-24T08:50:51;19.40;99.90
33139;DHT22;19501;50.948;5.316;2023-07-24T08:53:19;19.20;99.90
33139;DHT22;19501;50.948;5.316;2023-07-24T08:55:47;19.30;99.90
33139;DHT22;19501;50.948;5.316;2023-07-24T08:58:14;19.30;99.90
33139;DHT22;19501;50.948;5.316;2023-07-24T09:00:40;19.30;99.90
33139;DHT22;19501;50.948;5.316;2023-07-24T09:03:05;19.30;99.90
33139;DHT22;19501;50.948;5.316;2023-07-24T09:05:31;19.30;99.90
33139;DHT22;19501;50.948;5.316;2023-07-24T09:07:57;19.30;99.90
33139;DHT22;19501;50.948;5.316;2023-07-24T09:10:26;19.20;99.90
33139;DHT22;19501;50.948;5.316;2023-07-24T09:12:52;19.40;99.90
33139;DHT22;19501;50.948;5.316;2023-07-24T09:15:18;19.40;99.90
33139;DHT22;19501;50.948;5.316;2023-07-24T09:17:51;19.30;99.90
33139;DHT22;19501;50.948;5.316;2023-07-24T09:20:18;19.40;99.90
33139;DHT22;19501;50.948;5.316;2023-07-24T09:22:54;19.40;99.90
33139;DHT22;19501;50.948;5.316;2023-07-24T09:25:33;19.00;99.90
33139;DHT22;19501;50.948;5.316;2023-07-24T09:27:59;18.90;99.90
33139;DHT22;19501;50.948;5.316;2023-07-24T09:30:24;18.90;99.90
33139;DHT22;19501;50.948;5.316;2023-07-24T09:32:54;18.70;99.90
33139;DHT22;19501;50.948;5.316;2023-07-24T09:35:20;18.60;99.90
33139;DHT22;19501;50.948;5.316;2023-07-24T09:37:51;18.50;99.90
33139;DHT22;19501;50.948;5.316;2023-07-24T09:40:26;18.50;99.90
33139;DHT22;19501;50.948;5.316;2023-07-24T09:42:52;18.50;99.90
33139;DHT22;19501;50.948;5.316;2023-07-24T09:45:17;18.60;99.90
33139;DHT22;19501;50.948;5.316;2023-07-24T09:47:43;18.60;99.90
33139;DHT22;19501;50.948;5.316;2023-07-24T09:50:10;18.60;99.90
33139;DHT22;19501;50.948;5.316;2023-07-24T09:52:36;18.60;99.90
33139;DHT22;19501;50.948;5.316;2023-07-24T09:55:11;18.70;99.90
33139;DHT22;19501;50.948;5.316;2023-07-24T09:57:37;18.60;99.90
33139;DHT22;19501;50.948;5.316;2023-07-24T10:00:03;18.60;99.90
33139;DHT22;19501;50.948;5.316;2023-07-24T10:02:30;18.20;99.90
33139;DHT22;19501;50.948;5.316;2023-07-24T10:04:56;17.80;99.90
33139;DHT22;19501;50.948;5.316;2023-07-24T10:07:24;17.60;99.90
33139;DHT22;19501;50.948;5.316;2023-07-24T10:09:51;17.60;99.90
33139;DHT22;19501;50.948;5.316;2023-07-24T10:12:20;17.50;99.90
33139;DHT22;19501;50.948;5.316;2023-07-24T10:14:47;17.40;99.90
33139;DHT22;19501;50.948;5.316;2023-07-24T10:17:13;17.30;99.90
33139;DHT22;19501;50.948;5.316;2023-07-24T10:19:40;17.20;99.90
33139;DHT22;19501;50.948;5.316;2023-07-24T10:22:09;17.10;99.90
33139;DHT22;19501;50.948;5.316;2023-07-24T10:24:44;17.20;99.90
33139;DHT22;19501;50.948;5.316;2023-07-24T10:27:09;17.30;99.90
33139;DHT22;19501;50.948;5.316;2023-07-24T10:29:36;17.20;99.90
33139;DHT22;19501;50.948;5.316;2023-07-24T10:32:02;17.20;99.90
33139;DHT22;19501;50.948;5.316;2023-07-24T10:34:40;17.20;99.90
33139;DHT22;19501;50.948;5.316;2023-07-24T10:37:09;17.60;99.90
33139;DHT22;19501;50.948;5.316;2023-07-24T10:39:41;17.90;99.90
33139;DHT22;19501;50.948;5.316;2023-07-24T10:42:08;18.10;99.90
33139;DHT22;19501;50.948;5.316;2023-07-24T10:44:35;18.00;99.90
33139;DHT22;19501;50.948;5.316;2023-07-24T10:47:01;17.90;99.90
33139;DHT22;19501;50.948;5.316;2023-07-24T10:49:27;17.90;99.90
33139;DHT22;19501;50.948;5.316;2023-07-24T10:51:59;17.90;99.90
33139;DHT22;19501;50.948;5.316;2023-07-24T10:54:25;18.00;99.90
33139;DHT22;19501;50.948;5.316;2023-07-24T10:56:58;17.90;99.90
33139;DHT22;19501;50.948;5.316;2023-07-24T10:59:35;17.90;99.90
33139;DHT22;19501;50.948;5.316;2023-07-24T11:02:01;18.00;99.90
33139;DHT22;19501;50.948;5.316;2023-07-24T11:04:30;18.10;99.90
33139;DHT22;19501;50.948;5.316;2023-07-24T11:06:55;18.00;99.90
33139;DHT22;19501;50.948;5.316;2023-07-24T11:09:33;18.20;99.90
33139;DHT22;19501;50.948;5.316;2023-07-24T11:11:59;18.10;99.90
33139;DHT22;19501;50.948;5.316;2023-07-24T11:14:25;18.10;99.90
33139;DHT22;19501;50.948;5.316;2023-07-24T11:16:51;18.10;99.90
33139;DHT22;19501;50.948;5.316;2023-07-24T11:19:26;18.10;99.90
33139;DHT22;19501;50.948;5.316;2023-07-24T11:21:51;18.60;99.90
33139;DHT22;19501;50.948;5.316;2023-07-24T11:24:18;19.10;99.90
33139;DHT22;19501;50.948;5.316;2023-07-24T11:26:43;19.30;99.90
33139;DHT22;19501;50.948;5.316;2023-07-24T11:29:12;20.70;99.90
33139;DHT22;19501;50.948;5.316;2023-07-24T11:31:38;21.10;99.90
33139;DHT22;19501;50.948;5.316;2023-07-24T11:34:07;21.40;99.90
33139;DHT22;19501;50.948;5.316;2023-07-24T11:36:34;21.70;99.90
33139;DHT22;19501;50.948;5.316;2023-07-24T11:38:59;21.30;99.90
33139;DHT22;19501;50.948;5.316;2023-07-24T11:41:26;21.20;99.90
33139;DHT22;19501;50.948;5.316;2023-07-24T11:43:52;21.10;99.90
33139;DHT22;19501;50.948;5.316;2023-07-24T11:46:28;20.90;99.90
33139;DHT22;19501;50.948;5.316;2023-07-24T11:48:55;20.50;99.90
33139;DHT22;19501;50.948;5.316;2023-07-24T11:51:22;20.10;99.90
33139;DHT22;19501;50.948;5.316;2023-07-24T11:53:50;20.60;99.90
33139;DHT22;19501;50.948;5.316;2023-07-24T11:56:18;21.80;99.90
33139;DHT22;19501;50.948;5.316;2023-07-24T11:58:44;23.30;99.90
33139;DHT22;19501;50.948;5.316;2023-07-24T12:01:12;23.20;99.90
33139;DHT22;19501;50.948;5.316;2023-07-24T12:03:39;23.60;99.90
33139;DHT22;19501;50.948;5.316;2023-07-24T12:06:05;24.00;99.90
33139;DHT22;19501;50.948;5.316;2023-07-24T12:08:39;23.80;99.90
33139;DHT22;19501;50.948;5.316;2023-07-24T12:11:04;22.70;99.90
33139;DHT22;19501;50.948;5.316;2023-07-24T12:13:30;22.90;99.90
33139;DHT22;19501;50.948;5.316;2023-07-24T12:15:58;23.60;99.90
33139;DHT22;19501;50.948;5.316;2023-07-24T12:18:23;24.50;99.90
33139;DHT22;19501;50.948;5.316;2023-07-24T12:20:49;24.00;99.90
33139;DHT22;19501;50.948;5.316;2023-07-24T12:23:14;23.10;99.90
33139;DHT22;19501;50.948;5.316;2023-07-24T12:25:41;22.70;99.90
33139;DHT22;19501;50.948;5.316;2023-07-24T12:28:06;22.20;99.90
33139;DHT22;19501;50.948;5.316;2023-07-24T12:30:32;21.80;99.90
33139;DHT22;19501;50.948;5.316;2023-07-24T12:32:58;21.20;99.90
33139;DHT22;19501;50.948;5.316;2023-07-24T12:35:23;20.80;99.90
33139;DHT22;19501;50.948;5.316;2023-07-24T12:37:49;20.70;99.90
33139;DHT22;19501;50.948;5.316;2023-07-24T12:40:15;20.50;99.90
33139;DHT22;19501;50.948;5.316;2023-07-24T12:42:40;20.30;99.90
33139;DHT22;19501;50.948;5.316;2023-07-24T12:45:06;20.20;99.90
33139;DHT22;19501;50.948;5.316;2023-07-24T12:47:32;19.90;99.90
33139;DHT22;19501;50.948;5.316;2023-07-24T12:49:58;19.60;99.90
33139;DHT22;19501;50.948;5.316;2023-07-24T12:52:25;19.20;99.90
33139;DHT22;19501;50.948;5.316;2023-07-24T12:54:51;19.00;99.90
33139;DHT22;19501;50.948;5.316;2023-07-24T12:57:16;18.90;99.90
33139;DHT22;19501;50.948;5.316;2023-07-24T12:59:42;18.90;99.90
33139;DHT22;19501;50.948;5.316;2023-07-24T13:02:07;18.90;99.90
33139;DHT22;19501;50.948;5.316;2023-07-24T13:04:33;18.50;99.90
33139;DHT22;19501;50.948;5.316;2023-07-24T13:06:59;18.60;99.90
33139;DHT22;19501;50.948;5.316;2023-07-24T13:09:26;19.20;99.90
33139;DHT22;19501;50.948;5.316;2023-07-24T13:11:53;19.60;99.90
33139;DHT22;19501;50.948;5.316;2023-07-24T13:14:20;20.10;99.90
33139;DHT22;19501;50.948;5.316;2023-07-24T13:16:46;20.40;99.90
33139;DHT22;19501;50.948;5.316;2023-07-24T13:19:12;21.10;99.90
33139;DHT22;19501;50.948;5.316;2023-07-24T13:21:38;22.30;99.90
33139;DHT22;19501;50.948;5.316;2023-07-24T13:24:06;23.40;99.90
33139;DHT22;19501;50.948;5.316;2023-07-24T13:26:31;24.10;99.90
33139;DHT22;19501;50.948;5.316;2023-07-24T13:28:57;23.80;99.90
33139;DHT22;19501;50.948;5.316;2023-07-24T13:31:23;23.50;99.90
33139;DHT22;19501;50.948;5.316;2023-07-24T13:33:49;23.30;99.90
33139;DHT22;19501;50.948;5.316;2023-07-24T13:36:15;23.50;99.90
33139;DHT22;19501;50.948;5.316;2023-07-24T13:38:40;23.90;99.90
33139;DHT22;19501;50.948;5.316;2023-07-24T13:41:07;24.30;99.90
33139;DHT22;19501;50.948;5.316;2023-07-24T13:43:33;24.90;99.90
33139;DHT22;19501;50.948;5.316;2023-07-24T13:45:59;24.30;99.90
33139;DHT22;19501;50.948;5.316;2023-07-24T13:48:27;23.90;99.90
33139;DHT22;19501;50.948;5.316;2023-07-24T13:50:52;24.10;99.90
33139;DHT22;19501;50.948;5.316;2023-07-24T13:53:18;23.60;99.90
33139;DHT22;19501;50.948;5.316;2023-07-24T13:55:44;23.30;99.90
33139;DHT22;19501;50.948;5.316;2023-07-24T13:58:10;23.10;99.90
33139;DHT22;19501;50.948;5.316;2023-07-24T14:00:37;23.10;99.90
33139;DHT22;19501;50.948;5.316;2023-07-24T14:03:03;22.90;99.90
33139;DHT22;19501;50.948;5.316;2023-07-24T14:05:29;23.30;99.90
33139;DHT22;19501;50.948;5.316;2023-07-24T14:07:54;23.00;99.90
33139;DHT22;19501;50.948;5.316;2023-07-24T14:10:22;22.00;99.90
33139;DHT22;19501;50.948;5.316;2023-07-24T14:12:48;21.30;99.90
33139;DHT22;19501;50.948;5.316;2023-07-24T14:15:13;21.30;99.90
33139;DHT22;19501;50.948;5.316;2023-07-24T14:17:40;21.10;99.90
33139;DHT22;19501;50.948;5.316;2023-07-24T14:20:06;21.20;99.90
33139;DHT22;19501;50.948;5.316;2023-07-24T14:22:32;20.80;99.90
33139;DHT22;19501;50.948;5.316;2023-07-24T14:24:57;20.70;99.90
33139;DHT22;19501;50.948;5.316;2023-07-24T14:27:23;20.50;99.90
33139;DHT22;19501;50.948;5.316;2023-07-24T14:29:49;20.50;99.90
33139;DHT22;19501;50.948;5.316;2023-07-24T14:32:14;20.90;99.90
33139;DHT22;19501;50.948;5.316;2023-07-24T14:34:41;20.70;99.90
33139;DHT22;19501;50.948;5.316;2023-07-24T14:37:07;20.50;99.90
33139;DHT22;19501;50.948;5.316;2023-07-24T14:39:32;20.40;99.90
33139;DHT22;19501;50.948;5.316;2023-07-24T14:41:58;20.40;99.90
33139;DHT22;19501;50.948;5.316;2023-07-24T14:44:24;20.40;99.90
33139;DHT22;19501;50.948;5.316;2023-07-24T14:46:50;20.30;99.90
33139;DHT22;19501;50.948;5.316;2023-07-24T14:49:16;21.00;99.90
33139;DHT22;19501;50.948;5.316;2023-07-24T14:51:41;21.50;99.90
33139;DHT22;19501;50.948;5.316;2023-07-24T14:54:07;21.60;99.90
33139;DHT22;19501;50.948;5.316;2023-07-24T14:56:33;21.70;99.90
33139;DHT22;19501;50.948;5.316;2023-07-24T14:58:58;21.70;99.90
33139;DHT22;19501;50.948;5.316;2023-07-24T15:01:24;21.80;99.90
33139;DHT22;19501;50.948;5.316;2023-07-24T15:03:53;21.40;99.90
33139;DHT22;19501;50.948;5.316;2023-07-24T15:06:18;21.20;99.90
33139;DHT22;19501;50.948;5.316;2023-07-24T15:08:44;21.50;99.90
33139;DHT22;19501;50.948;5.316;2023-07-24T15:11:10;21.70;99.90
33139;DHT22;19501;50.948;5.316;2023-07-24T15:13:36;21.60;99.90
33139;DHT22;19501;50.948;5.316;2023-07-24T15:16:02;21.30;99.90
33139;DHT22;19501;50.948;5.316;2023-07-24T15:18:28;21.30;99.90
33139;DHT22;19501;50.948;5.316;2023-07-24T15:20:54;21.70;99.90
33139;DHT22;19501;50.948;5.316;2023-07-24T15:23:19;21.90;99.90
33139;DHT22;19501;50.948;5.316;2023-07-24T15:25:45;21.80;99.90
33139;DHT22;19501;50.948;5.316;2023-07-24T15:28:11;21.60;99.90
33139;DHT22;19501;50.948;5.316;2023-07-24T15:30:36;21.70;99.90
33139;DHT22;19501;50.948;5.316;2023-07-24T15:33:04;21.50;99.90
33139;DHT22;19501;50.948;5.316;2023-07-24T15:35:30;21.40;99.90